• Join FlightAware (Why Join?)
  • Login
  • US Flag 
07:16AM EDT


 

Airport Tracker/Info


-or-


 

Live Flight TrackerFlight Track Log ✈ UPS662 ✈ 11-May-2013 ✈ KSDF - KMCI

Flight Track Log - Related Links

Times and Time Zones

All times are in EDT time to prevent confusion due to time zone crossing. See the UPS662 flight status page for this flight to view local times or setup timezone preferences in your user account.

Time Position Orientation Groundspeed Altitude Reporting Facility
EDT Latitude Longitude Course Direction KTS MPH feet Rate Location/Type
05:53AM 38.2000 -85.7600 341° North 157 181 3,000  Level FlightAware
05:54AM 38.2150 -85.7710 330° Northwest 176 203 4,000 1,800 Climbing FlightAware
05:54AM 38.2430 -85.7880 335° Northwest 250 288 4,700 1,860 Climbing FlightAware
05:54AM 38.2600 -85.8000 331° Northwest 275 316 5,400 3,780 Climbing FlightAware
05:55AM 38.2710 -85.8150 313° West 254 292 6,600 5,040 Climbing FlightAware
05:55AM 38.2760 -85.8290 294° West 248 285 7,500 5,040 Climbing FlightAware
05:55AM 38.2790 -85.8520 279° West 249 287 8,700 3,180 Climbing FlightAware
05:55AM 38.2740 -85.8960 262° West 264 304 9,900 2,100 Climbing FlightAware
05:56AM 38.2630 -85.9640 258° West 329 379 11,200 2,160 Climbing FlightAware
05:57AM 38.2480 -86.0470 257° West 388 447 12,800 3,120 Climbing FlightAware
05:58AM 38.2290 -86.1490 257° West 412 474 15,700 4,080 Climbing FlightAware
05:58AM 38.2110 -86.2440 256° West 422 486 18,600 3,660 Climbing FlightAware
05:59AM 38.1920 -86.3480 257° West 438 504 20,900 3,180 Climbing FlightAware
05:59AM 38.1780 -86.4300 258° West 450 518 22,600 3,060 Climbing FlightAware
06:00AM 38.1800 -86.5640 271° West 465 535 25,000 2,760 Climbing FlightAware
06:01AM 38.2030 -86.6790 284° West 470 541 27,000 2,880 Climbing FlightAware
06:02AM 38.2250 -86.7940 284° West 467 537 29,100 2,760 Climbing FlightAware
06:02AM 38.2450 -86.9000 284° West 455 524 30,700 2,280 Climbing FlightAware
06:03AM 38.2650 -87.0030 284° West 445 512 32,200 2,220 Climbing FlightAware
06:04AM 38.2850 -87.1150 283° West 425 489 33,900 1,260 Climbing FlightAware
06:04AM 38.3040 -87.2140 284° West 420 483 34,000 60 Climbing FlightAware
06:05AM 38.3230 -87.3200 283° West 425 489 34,000  Level FlightAware
06:06AM 38.3410 -87.4180 283° West 427 491 34,000  Level FlightAware
06:07AM 38.3620 -87.5300 283° West 429 494 34,000  Level FlightAware
06:07AM 38.3790 -87.6240 283° West 429 494 34,000  Level FlightAware
06:08AM 38.4000 -87.7380 283° West 430 495 34,000  Level FlightAware
06:09AM 38.4180 -87.8370 283° West 431 496 34,000  Level FlightAware
06:09AM 38.4380 -87.9510 283° West 433 498 34,000  Level FlightAware
06:10AM 38.4550 -88.0480 283° West 434 499 34,000  Level FlightAware
06:11AM 38.4750 -88.1580 283° West 434 499 34,000  Level FlightAware
06:12AM 38.4910 -88.2610 281° West 435 501 34,000  Level FlightAware
06:12AM 38.5060 -88.3630 281° West 436 502 34,000  Level FlightAware
06:13AM 38.5240 -88.4800 281° West 440 506 34,000  Level FlightAware
06:14AM 38.5390 -88.5820 281° West 442 509 34,000 60 Level FlightAware
06:14AM 38.5570 -88.6950 282° West 443 510 34,100 60 Climbing FlightAware
06:15AM 38.5720 -88.7980 281° West 443 510 34,100  Level FlightAware
06:16AM 38.5870 -88.9000 281° West 441 507 34,100 -120 Level FlightAware
06:16AM 38.6050 -89.0180 281° West 441 507 34,000 -120 Descending FlightAware
06:17AM 38.6190 -89.1180 280° West 441 507 34,000  Level FlightAware
06:18AM 38.6350 -89.2230 281° West 442 509 34,000  Level FlightAware
06:18AM 38.6490 -89.3210 280° West 442 509 34,000  Level FlightAware
06:19AM 38.6690 -89.4610 280° West 444 511 34,000  Level FlightAware
06:20AM 38.6880 -89.5950 280° West 448 516 34,000 60 Level FlightAware
06:21AM 38.7000 -89.6760 281° West 448 516 34,100 60 Climbing FlightAware
06:22AM 38.7160 -89.7910 280° West 449 517 34,100  Level FlightAware
06:22AM 38.7340 -89.9170 280° West 449 517 34,100 -120 Level FlightAware
06:23AM 38.7510 -90.0420 280° West 449 517 34,000 -60 Descending FlightAware
06:24AM 38.7710 -90.1870 280° West 451 519 34,000  Level FlightAware
06:25AM 38.7850 -90.2870 280° West 453 521 34,000  Level FlightAware
06:25AM 38.7970 -90.3820 279° West 455 524 34,000  Level FlightAware
06:26AM 38.8130 -90.5020 280° West 457 526 34,000  Level FlightAware
06:27AM 38.8290 -90.6180 280° West 460 529 34,000  Level FlightAware
06:27AM 38.8440 -90.7280 280° West 462 532 34,000 60 Level FlightAware
06:28AM 38.8630 -90.8770 279° West 464 534 34,100 60 Climbing FlightAware
06:29AM 38.8760 -90.9770 280° West 463 533 34,100 -120 Level FlightAware
06:30AM 38.8930 -91.1070 280° West 461 531 34,000 -120 Descending FlightAware
06:30AM 38.9070 -91.2210 279° West 461 531 34,000  Level FlightAware
06:31AM 38.9220 -91.3340 280° West 461 531 34,000  Level FlightAware
06:32AM 38.9370 -91.4530 279° West 461 531 34,000  Level FlightAware
06:32AM 38.9490 -91.5500 279° West 461 531 34,000  Level FlightAware
06:33AM 38.9640 -91.6690 279° West 460 529 34,000  Level FlightAware
06:34AM 38.9780 -91.7880 279° West 461 531 34,000  Level FlightAware
06:35AM 38.9970 -91.9420 279° West 463 533 34,000  Level FlightAware
06:36AM 39.0110 -92.0570 279° West 465 535 34,000  Level FlightAware
06:36AM 39.0250 -92.1850 278° West 466 536 34,000  Level FlightAware
06:37AM 39.0460 -92.3620 279° West 467 537 34,100  Climbing FlightAware
06:38AM 39.0570 -92.4560 279° West 467 537 34,100 -120 Level FlightAware
06:39AM 39.0720 -92.5850 279° West 467 537 34,000 -120 Descending FlightAware
06:39AM 39.0830 -92.6790 279° West 467 537 34,000 -300 Level FlightAware
06:40AM 39.0980 -92.8090 278° West 461 531 33,600 -3,060 Descending FlightAware
06:41AM 39.1120 -92.9300 279° West 460 529 29,700 -4,260 Descending FlightAware
06:42AM 39.1250 -93.0510 278° West 455 524 27,600 -2,880 Descending FlightAware
06:42AM 39.1380 -93.1600 279° West 442 509 25,700 -2,880 Descending FlightAware
06:43AM 39.1500 -93.2770 278° West 427 491 23,600 -2,880 Descending FlightAware
06:44AM 39.1610 -93.3770 278° West 415 478 21,700 -2,760 Descending FlightAware
06:44AM 39.1730 -93.4830 278° West 405 466 19,700 -2,760 Descending FlightAware
06:45AM 39.1830 -93.5780 278° West 398 458 17,800 -2,940 Descending FlightAware
06:46AM 39.1940 -93.6810 278° West 393 452 15,600 -2,940 Descending FlightAware
06:47AM 39.2040 -93.7770 278° West 384 442 13,700 -2,340 Descending FlightAware
06:47AM 39.2130 -93.8650 278° West 364 419 12,500 -1,800 Descending FlightAware
06:48AM 39.2220 -93.9580 277° West 344 396 11,200 -1,500 Descending FlightAware
06:49AM 39.2280 -94.0370 276° West 314 361 10,400 -1,200 Descending FlightAware
06:49AM 39.2320 -94.0900 276° West 290 334 9,800 -1,080 Descending FlightAware
06:49AM 39.2350 -94.1150 279° West 277 319 9,600 -1,500 Descending FlightAware
06:50AM 39.2400 -94.1650 277° West 268 308 8,700 -1,800 Descending FlightAware
06:50AM 39.2440 -94.2030 278° West 263 303 8,000 -1,980 Descending FlightAware
06:51AM 39.2490 -94.2490 278° West 265 305 6,900 -2,040 Descending FlightAware
06:51AM 39.2510 -94.2710 277° West 267 307 6,500 -1,500 Descending FlightAware
06:51AM 39.2560 -94.3120 279° West 262 302 5,900 -1,200 Descending FlightAware
06:52AM 39.2600 -94.3520 277° West 253 291 5,500 -960 Descending FlightAware
06:52AM 39.2620 -94.3810 275° West 242 278 5,200 -720 Descending FlightAware
06:53AM 39.2650 -94.4150 277° West 229 264 5,000 -660 Descending FlightAware
06:53AM 39.2680 -94.4530 276° West 212 244 4,600 -1,140 Descending FlightAware
06:54AM 39.2710 -94.4850 277° West 208 239 4,000 -1,200 Descending FlightAware
06:54AM 39.2730 -94.5190 274° West 193 222 3,500 -1,020 Descending FlightAware
06:55AM 39.2760 -94.5530 277° West 169 194 3,000 -600 Descending FlightAware
06:55AM 39.2780 -94.5750 277° West 169 194 3,000 -660 Level FlightAware
06:56AM 39.2811 -94.6136 277° West 140 161 2,200 -780 Descending Kansas City Center
06:57AM 39.2850 -94.6592 276° West 135 155 1,600 -660 Descending Kansas City Center
06:58AM 39.2889 -94.7047 276° West 134 154 900 -720 Descending Kansas City Center
07:00AM 39.2833 -94.7000 270° West  Level FlightAware Approximate